Time;durP1;ratioP1;P1;durP2;ratioP2;P2;SDS_P1;SDS_P2;PMS_P1;PMS_P2;Temp;Humidity;BMP_temperature;BMP_pressure;BME280_temperature;BME280_humidity;BME280_pressure;Samples;Min_cycle;Max_cycle;Signal;HPM_P1;HPM_P2
2021/06/10 00:01:24;;;;;;;9.85;8.82;;;20.70;68.00;;;;;;5053361;28;20036;-72
2021/06/10 00:03:50;;;;;;;11.18;8.57;;;20.70;67.90;;;;;;5058029;28;20040;-72
2021/06/10 00:06:15;;;;;;;12.77;9.32;;;20.70;67.80;;;;;;5056161;28;20031;-72
2021/06/10 00:08:41;;;;;;;10.27;9.18;;;20.70;67.70;;;;;;5051100;28;20025;-72
2021/06/10 00:11:07;;;;;;;8.70;7.72;;;20.70;67.80;;;;;;5052927;28;20028;-72
2021/06/10 00:13:32;;;;;;;12.02;8.90;;;20.70;68.00;;;;;;5048288;28;20040;-72
2021/06/10 00:15:58;;;;;;;8.55;7.75;;;20.70;68.10;;;;;;5048013;28;20021;-72
2021/06/10 00:18:24;;;;;;;10.27;7.97;;;20.70;68.40;;;;;;5052316;28;20478;-72
2021/06/10 00:20:50;;;;;;;12.20;7.93;;;20.70;68.40;;;;;;5059660;28;20044;-71
2021/06/10 00:23:16;;;;;;;8.23;7.20;;;20.70;68.20;;;;;;5063165;28;20517;-70
2021/06/10 00:25:42;;;;;;;10.18;7.47;;;20.70;68.30;;;;;;5044381;28;20021;-72
2021/06/10 00:28:07;;;;;;;10.48;7.47;;;20.70;68.20;;;;;;5055758;28;20039;-72
2021/06/10 00:30:34;;;;;;;11.10;8.38;;;20.70;68.20;;;;;;5054902;28;20033;-72
2021/06/10 00:33:00;;;;;;;9.07;7.72;;;20.60;68.00;;;;;;5053560;28;20041;-72
2021/06/10 00:35:26;;;;;;;9.77;7.13;;;20.60;68.20;;;;;;5045539;28;20025;-72
2021/06/10 00:37:58;;;;;;;11.18;8.13;;;20.60;68.50;;;;;;5051857;28;20271;-72
2021/06/10 00:40:28;;;;;;;7.97;7.18;;;20.60;68.70;;;;;;5058371;28;20091;-71
2021/06/10 00:42:54;;;;;;;12.70;7.93;;;20.60;68.60;;;;;;5056794;28;20037;-73
2021/06/10 00:45:21;;;;;;;9.98;7.90;;;20.50;68.50;;;;;;5055053;28;20029;-72
2021/06/10 00:47:50;;;;;;;10.90;8.63;;;20.40;68.50;;;;;;5048075;28;20436;-73
2021/06/10 00:50:27;;;;;;;11.73;8.25;;;20.40;68.30;;;;;;5052246;28;20102;-73
2021/06/10 00:52:53;;;;;;;9.80;7.45;;;20.40;68.60;;;;;;5055855;28;20360;-73
2021/06/10 00:55:19;;;;;;;8.73;7.47;;;20.30;68.50;;;;;;5056457;28;20036;-72
2021/06/10 00:57:45;;;;;;;11.05;8.63;;;20.30;68.60;;;;;;5039285;28;20021;-72
2021/06/10 01:00:14;;;;;;;8.77;7.82;;;20.30;69.70;;;;;;5058383;28;20025;-72
2021/06/10 01:02:40;;;;;;;9.32;6.75;;;20.20;69.80;;;;;;5059201;28;20036;-73
2021/06/10 01:05:08;;;;;;;9.13;7.65;;;20.20;69.50;;;;;;5061016;28;20382;-72
2021/06/10 01:07:42;;;;;;;9.43;8.23;;;20.20;69.60;;;;;;5056516;28;20025;-73
2021/06/10 01:10:18;;;;;;;11.43;8.20;;;20.20;69.90;;;;;;5063242;28;20078;-72
2021/06/10 01:12:56;;;;;;;9.98;8.00;;;20.10;70.00;;;;;;5058471;28;20021;-72
2021/06/10 01:15:26;;;;;;;10.95;8.55;;;20.00;69.80;;;;;;5057941;28;20020;-72
2021/06/10 01:17:51;;;;;;;8.98;7.45;;;20.00;70.00;;;;;;5066021;28;20029;-72
2021/06/10 01:20:26;;;;;;;10.02;8.00;;;20.00;70.00;;;;;;5055772;28;20029;-73
2021/06/10 01:22:57;;;;;;;9.10;7.47;;;20.00;70.10;;;;;;5057563;28;20025;-73
2021/06/10 01:25:46;;;;;;;9.50;8.32;;;19.90;70.20;;;;;;5047779;28;20101;-72
2021/06/10 01:28:13;;;;;;;10.75;8.48;;;19.90;71.10;;;;;;5047158;28;20021;-72
2021/06/10 01:31:00;;;;;;;9.52;6.97;;;19.90;71.30;;;;;;5045341;28;20132;-73
2021/06/10 01:33:34;;;;;;;10.20;8.32;;;19.80;71.10;;;;;;5042959;28;20029;-73
2021/06/10 01:36:11;;;;;;;11.35;9.00;;;19.70;71.70;;;;;;5045048;28;20108;-71
2021/06/10 01:38:39;;;;;;;9.85;8.85;;;19.70;71.80;;;;;;5044359;28;20364;-72
2021/06/10 01:41:06;;;;;;;10.75;8.77;;;19.70;71.60;;;;;;5052705;28;20059;-72
2021/06/10 01:43:36;;;;;;;10.57;8.40;;;19.70;71.40;;;;;;5041481;28;20167;-72
2021/06/10 01:46:03;;;;;;;9.45;7.93;;;19.70;71.40;;;;;;5050146;28;20029;-72
2021/06/10 01:48:30;;;;;;;9.57;8.07;;;19.60;71.30;;;;;;5046400;28;20024;-72
2021/06/10 01:50:59;;;;;;;10.85;8.43;;;19.60;71.30;;;;;;5051903;28;20036;-70
2021/06/10 01:53:26;;;;;;;11.13;9.15;;;19.60;71.30;;;;;;5057807;28;20491;-72
2021/06/10 01:55:54;;;;;;;9.98;8.65;;;19.50;71.30;;;;;;5056566;28;20467;-72
2021/06/10 01:58:21;;;;;;;12.95;8.27;;;19.50;71.10;;;;;;5058164;28;20405;-72
2021/06/10 02:00:49;;;;;;;11.05;8.10;;;19.50;71.10;;;;;;5056752;28;20025;-71
2021/06/10 02:03:16;;;;;;;13.25;9.20;;;19.50;71.10;;;;;;5060277;28;20044;-72
2021/06/10 02:05:43;;;;;;;9.15;8.05;;;19.40;71.20;;;;;;5053381;28;20029;-73
2021/06/10 02:08:10;;;;;;;9.18;7.93;;;19.40;71.10;;;;;;5056271;28;20089;-72
2021/06/10 02:10:37;;;;;;;10.75;8.57;;;19.30;71.00;;;;;;5063153;28;20078;-72
2021/06/10 02:13:04;;;;;;;9.27;7.57;;;19.30;71.10;;;;;;5059851;28;20037;-72
2021/06/10 02:15:30;;;;;;;10.10;8.35;;;19.30;71.40;;;;;;5060733;28;20031;-72
2021/06/10 02:17:56;;;;;;;10.98;8.23;;;19.30;71.40;;;;;;5057972;28;20509;-73
2021/06/10 02:20:22;;;;;;;10.05;7.68;;;19.30;71.20;;;;;;5058547;28;20024;-72
2021/06/10 02:22:48;;;;;;;9.98;8.43;;;19.20;71.30;;;;;;5054831;28;20471;-72
2021/06/10 02:25:14;;;;;;;9.85;7.82;;;19.20;71.70;;;;;;5056017;28;20072;-72
2021/06/10 02:27:41;;;;;;;9.77;8.70;;;19.10;71.30;;;;;;5057035;28;20082;-72
2021/06/10 02:30:09;;;;;;;9.02;7.57;;;19.10;71.40;;;;;;5056804;28;20116;-72
2021/06/10 02:32:35;;;;;;;9.18;7.05;;;19.10;71.30;;;;;;5058928;28;20020;-72
2021/06/10 02:35:04;;;;;;;9.63;7.97;;;19.00;71.20;;;;;;5055104;28;20048;-72
2021/06/10 02:37:30;;;;;;;8.80;7.30;;;19.00;71.20;;;;;;5057185;28;20064;-72
2021/06/10 02:39:56;;;;;;;12.45;8.35;;;19.00;72.10;;;;;;5051630;28;20022;-71
2021/06/10 02:42:23;;;;;;;11.88;8.10;;;19.00;71.90;;;;;;5048530;28;20025;-69
2021/06/10 02:44:52;;;;;;;8.48;7.50;;;19.00;72.00;;;;;;5042384;28;20025;-72
2021/06/10 02:47:20;;;;;;;9.35;7.63;;;18.90;72.10;;;;;;5049883;28;20033;-72
2021/06/10 02:49:47;;;;;;;9.07;8.02;;;18.90;72.30;;;;;;5050758;28;20025;-72
2021/06/10 02:52:18;;;;;;;8.65;7.10;;;18.90;72.70;;;;;;5048255;28;20067;-72
2021/06/10 02:54:46;;;;;;;7.72;6.90;;;18.80;72.60;;;;;;5040658;28;20386;-72
2021/06/10 02:57:14;;;;;;;9.75;7.15;;;18.80;72.70;;;;;;5041083;28;20025;-72
2021/06/10 02:59:42;;;;;;;9.85;7.20;;;18.80;72.90;;;;;;5052724;28;20037;-72
2021/06/10 03:02:09;;;;;;;8.65;7.53;;;18.80;72.80;;;;;;5042226;28;20072;-73
2021/06/10 03:04:36;;;;;;;9.65;8.18;;;18.70;73.00;;;;;;5047420;28;20029;-72
2021/06/10 03:07:02;;;;;;;10.40;8.32;;;18.70;73.10;;;;;;5048167;28;20374;-72
2021/06/10 03:09:29;;;;;;;11.48;8.77;;;18.70;73.10;;;;;;5044514;28;20029;-72
2021/06/10 03:11:56;;;;;;;8.55;7.28;;;18.70;73.30;;;;;;5048251;28;20068;-71
2021/06/10 03:14:23;;;;;;;8.00;7.05;;;18.60;73.90;;;;;;5049390;28;20090;-72
2021/06/10 03:16:49;;;;;;;8.13;7.07;;;18.70;73.60;;;;;;5047515;28;20714;-72
2021/06/10 03:19:17;;;;;;;10.93;8.07;;;18.60;73.70;;;;;;5047654;28;20032;-72
2021/06/10 03:21:45;;;;;;;10.00;7.88;;;18.60;73.40;;;;;;5051627;28;20025;-72
2021/06/10 03:24:12;;;;;;;10.43;8.07;;;18.60;73.70;;;;;;5050747;28;20052;-70
2021/06/10 03:26:39;;;;;;;9.88;7.55;;;18.60;73.90;;;;;;5040393;28;20063;-72
2021/06/10 03:29:06;;;;;;;11.50;7.57;;;18.60;73.80;;;;;;5059201;28;20029;-72
2021/06/10 03:31:34;;;;;;;9.30;7.60;;;18.60;74.10;;;;;;5047860;28;20047;-73
2021/06/10 03:34:00;;;;;;;11.00;8.73;;;18.60;74.20;;;;;;5047415;28;20029;-70
2021/06/10 03:36:27;;;;;;;10.02;7.40;;;18.60;75.00;;;;;;5047840;28;20932;-72
2021/06/10 03:38:56;;;;;;;9.90;7.38;;;18.60;74.50;;;;;;5058286;28;20025;-71
2021/06/10 03:41:22;;;;;;;8.52;7.18;;;18.60;74.80;;;;;;5048589;28;20040;-71
2021/06/10 03:43:49;;;;;;;10.40;7.78;;;18.60;74.90;;;;;;5061531;28;20028;-71
2021/06/10 03:46:14;;;;;;;12.85;7.82;;;18.60;74.90;;;;;;5066589;28;20029;-72
2021/06/10 03:48:42;;;;;;;8.95;7.60;;;18.60;75.00;;;;;;5052588;28;20029;-72
2021/06/10 03:51:12;;;;;;;9.48;7.60;;;18.60;75.20;;;;;;5045097;28;20029;-72
2021/06/10 03:53:38;;;;;;;9.13;6.93;;;18.60;75.30;;;;;;5055832;28;20021;-72
2021/06/10 03:56:05;;;;;;;9.30;7.15;;;18.60;75.10;;;;;;5060780;28;20020;-71
2021/06/10 03:58:31;;;;;;;9.55;7.45;;;18.60;75.30;;;;;;5053612;28;20022;-72
2021/06/10 04:00:57;;;;;;;8.60;7.65;;;18.70;75.70;;;;;;5052048;28;20033;-72
2021/06/10 04:03:23;;;;;;;11.02;8.38;;;18.70;75.50;;;;;;5050064;28;20029;-72
2021/06/10 04:05:49;;;;;;;9.30;6.95;;;18.70;75.70;;;;;;5054725;28;20356;-72
2021/06/10 04:08:14;;;;;;;8.60;7.70;;;18.70;75.90;;;;;;5053769;28;20025;-72
2021/06/10 04:10:40;;;;;;;11.40;7.45;;;18.70;75.50;;;;;;5057700;28;20100;-71
2021/06/10 04:13:05;;;;;;;11.57;7.50;;;18.70;75.60;;;;;;5049048;28;20617;-72
2021/06/10 04:15:31;;;;;;;8.25;6.50;;;18.70;75.70;;;;;;5051291;28;20033;-72
2021/06/10 04:17:57;;;;;;;8.32;7.03;;;18.70;75.20;;;;;;5054482;28;20032;-72
2021/06/10 04:20:23;;;;;;;9.60;6.45;;;18.70;74.70;;;;;;5057857;28;20059;-72
2021/06/10 04:22:48;;;;;;;7.72;6.60;;;18.70;74.30;;;;;;5051084;28;20031;-71
2021/06/10 04:25:14;;;;;;;7.57;6.57;;;18.70;74.20;;;;;;5049942;28;20047;-72
2021/06/10 04:27:40;;;;;;;7.95;6.13;;;18.80;73.60;;;;;;5047163;28;20029;-72
2021/06/10 04:30:11;;;;;;;7.00;5.93;;;18.70;73.40;;;;;;5050565;28;20032;-72
2021/06/10 04:32:37;;;;;;;9.80;6.57;;;18.70;72.90;;;;;;5051310;28;20104;-72
2021/06/10 04:35:05;;;;;;;8.50;5.53;;;18.70;72.80;;;;;;5037546;28;20048;-71
2021/06/10 04:37:31;;;;;;;6.53;5.68;;;18.70;72.80;;;;;;5064067;28;20058;-71
2021/06/10 04:39:56;;;;;;;7.95;6.03;;;18.70;72.90;;;;;;5063064;28;20507;-71
2021/06/10 04:42:22;;;;;;;11.05;6.70;;;18.80;72.90;;;;;;5056625;28;20033;-71
2021/06/10 04:44:48;;;;;;;7.85;6.38;;;18.70;73.30;;;;;;5057458;28;20586;-72
2021/06/10 04:47:14;;;;;;;6.70;5.90;;;18.80;73.20;;;;;;5055689;28;20040;-71
2021/06/10 04:49:39;;;;;;;6.97;6.20;;;18.80;73.30;;;;;;5057868;28;20055;-73
2021/06/10 04:52:06;;;;;;;7.82;5.50;;;18.80;73.30;;;;;;5048454;28;20037;-74
2021/06/10 04:54:34;;;;;;;6.80;6.05;;;18.80;73.30;;;;;;5032763;28;20027;-71
2021/06/10 04:57:00;;;;;;;6.60;5.72;;;18.70;73.00;;;;;;5061469;28;20093;-72
2021/06/10 04:59:26;;;;;;;8.88;6.72;;;18.80;73.10;;;;;;5059763;28;20021;-71
2021/06/10 05:01:52;;;;;;;8.70;7.32;;;18.80;73.50;;;;;;5055619;28;20036;-72
2021/06/10 05:04:17;;;;;;;10.68;6.80;;;18.80;73.10;;;;;;5059572;28;20028;-73
2021/06/10 05:06:43;;;;;;;7.95;5.85;;;18.80;73.10;;;;;;5058576;28;20044;-70
2021/06/10 05:09:09;;;;;;;8.77;5.40;;;18.80;72.90;;;;;;5062437;28;20394;-70
2021/06/10 05:11:35;;;;;;;7.20;5.30;;;18.90;72.90;;;;;;5054084;28;20025;-70
2021/06/10 05:14:01;;;;;;;8.07;6.00;;;18.90;73.10;;;;;;5052605;28;20091;-70
2021/06/10 05:16:27;;;;;;;6.35;5.25;;;18.90;73.20;;;;;;5055329;28;20032;-70
2021/06/10 05:18:53;;;;;;;6.85;5.72;;;19.00;73.10;;;;;;5058055;28;20025;-69
2021/06/10 05:21:19;;;;;;;6.30;5.00;;;19.00;72.20;;;;;;5053426;28;20040;-70
2021/06/10 05:23:44;;;;;;;7.47;5.18;;;19.00;72.20;;;;;;5059454;28;20029;-70
2021/06/10 05:26:10;;;;;;;8.38;6.25;;;19.10;72.70;;;;;;5056107;28;20028;-68
2021/06/10 05:28:36;;;;;;;6.97;4.90;;;19.10;72.10;;;;;;5058704;28;20036;-69
2021/06/10 05:31:05;;;;;;;6.80;5.07;;;19.10;72.40;;;;;;5055997;28;20116;-70
2021/06/10 05:33:34;;;;;;;6.63;5.55;;;19.20;72.80;;;;;;5054386;28;20025;-73
2021/06/10 05:36:00;;;;;;;7.30;5.20;;;19.20;73.00;;;;;;5048197;28;20033;-74
2021/06/10 05:38:26;;;;;;;6.95;5.35;;;19.20;72.50;;;;;;5058248;28;20021;-71
2021/06/10 05:40:52;;;;;;;7.43;5.15;;;19.20;72.50;;;;;;5054599;28;20032;-73
2021/06/10 05:43:18;;;;;;;8.63;5.90;;;19.30;72.70;;;;;;5057575;28;20039;-75
2021/06/10 05:45:44;;;;;;;6.88;5.05;;;19.30;72.70;;;;;;5059358;28;20417;-69
2021/06/10 05:48:11;;;;;;;6.18;4.75;;;19.40;72.50;;;;;;5046642;28;20033;-68
2021/06/10 05:50:37;;;;;;;6.07;5.13;;;19.50;72.40;;;;;;5053462;28;20068;-73
2021/06/10 05:53:03;;;;;;;5.38;4.78;;;19.60;71.80;;;;;;5044001;28;20387;-72
2021/06/10 05:55:29;;;;;;;8.20;5.53;;;19.60;71.10;;;;;;5057487;28;20024;-71
2021/06/10 05:57:55;;;;;;;5.88;4.63;;;19.60;71.40;;;;;;5055337;28;20036;-72
2021/06/10 06:00:21;;;;;;;7.82;4.18;;;19.70;71.10;;;;;;5054066;28;20047;-72
2021/06/10 06:02:48;;;;;;;6.30;4.93;;;19.70;70.90;;;;;;5055092;28;20108;-71
2021/06/10 06:05:13;;;;;;;5.07;3.60;;;19.70;70.80;;;;;;5046494;28;20584;-76
2021/06/10 06:07:39;;;;;;;4.88;3.30;;;19.70;71.00;;;;;;5055116;28;20033;-72
2021/06/10 06:10:06;;;;;;;3.20;2.90;;;19.80;71.10;;;;;;5057708;28;20060;-73
2021/06/10 06:12:32;;;;;;;5.68;4.40;;;19.80;70.90;;;;;;5053365;28;20048;-76
2021/06/10 06:14:59;;;;;;;5.88;3.38;;;19.80;70.50;;;;;;5053300;28;20025;-75
2021/06/10 06:17:24;;;;;;;4.68;3.58;;;19.90;70.50;;;;;;5052205;28;20032;-74
2021/06/10 06:19:50;;;;;;;5.13;3.75;;;19.90;70.50;;;;;;5050457;28;20031;-75
2021/06/10 06:22:16;;;;;;;5.78;3.95;;;19.90;70.70;;;;;;5043890;28;20074;-75
2021/06/10 06:24:42;;;;;;;5.82;3.85;;;19.90;70.70;;;;;;5054752;28;20502;-74
2021/06/10 06:27:08;;;;;;;4.38;3.53;;;20.00;70.50;;;;;;5060412;28;20032;-76
2021/06/10 06:29:35;;;;;;;5.72;3.45;;;20.00;70.10;;;;;;5052523;28;20033;-76
2021/06/10 06:32:02;;;;;;;4.00;3.30;;;20.00;70.10;;;;;;5051895;28;20121;-73
2021/06/10 06:34:28;;;;;;;4.18;2.80;;;20.00;69.90;;;;;;5047315;28;20036;-73
2021/06/10 06:36:54;;;;;;;5.30;3.22;;;20.00;69.50;;;;;;5043022;28;20478;-73
2021/06/10 06:39:20;;;;;;;4.97;2.90;;;20.00;69.40;;;;;;5042739;28;20021;-73
2021/06/10 06:41:46;;;;;;;4.68;2.78;;;20.10;69.00;;;;;;5044698;28;20532;-74
2021/06/10 06:44:12;;;;;;;7.72;3.85;;;20.10;68.90;;;;;;5043384;28;20043;-73
2021/06/10 06:46:37;;;;;;;3.47;3.00;;;20.10;68.70;;;;;;5046114;28;20506;-73
2021/06/10 06:49:04;;;;;;;3.50;2.50;;;20.10;68.10;;;;;;5046454;28;20051;-73
2021/06/10 06:51:30;;;;;;;4.53;2.40;;;20.20;67.70;;;;;;5045862;28;20035;-73
2021/06/10 06:53:56;;;;;;;4.70;2.72;;;20.20;67.50;;;;;;5055853;28;20111;-72
2021/06/10 06:56:23;;;;;;;3.08;2.72;;;20.30;67.80;;;;;;5055098;28;20040;-72
2021/06/10 06:58:50;;;;;;;2.85;2.28;;;20.30;67.90;;;;;;5051729;28;20025;-74
2021/06/10 07:01:16;;;;;;;5.50;2.50;;;20.40;68.10;;;;;;5045573;28;20040;-73
2021/06/10 07:03:42;;;;;;;5.32;3.50;;;20.40;68.10;;;;;;5042407;28;20025;-73
2021/06/10 07:06:08;;;;;;;11.05;8.80;;;20.50;68.00;;;;;;5044600;28;20036;-73
2021/06/10 07:08:33;;;;;;;22.35;14.65;;;20.40;67.70;;;;;;5039316;28;20371;-72
2021/06/10 07:10:59;;;;;;;19.00;12.73;;;20.50;67.80;;;;;;5050412;28;20094;-72
2021/06/10 07:13:26;;;;;;;8.35;5.55;;;20.60;67.60;;;;;;5052484;28;20986;-72
2021/06/10 07:15:52;;;;;;;4.53;3.90;;;20.50;66.90;;;;;;5048881;28;20455;-74
2021/06/10 07:18:19;;;;;;;7.00;3.63;;;20.60;66.70;;;;;;5050374;28;20055;-73
2021/06/10 07:20:45;;;;;;;5.07;3.70;;;20.60;66.60;;;;;;5051953;28;20037;-73
2021/06/10 07:23:10;;;;;;;8.60;4.28;;;20.60;66.60;;;;;;5050761;28;20399;-72
2021/06/10 07:25:36;;;;;;;5.03;3.40;;;20.70;66.20;;;;;;5054650;28;20025;-73
2021/06/10 07:28:03;;;;;;;6.15;3.67;;;20.70;66.00;;;;;;5047519;28;20113;-72
2021/06/10 07:30:30;;;;;;;4.60;3.60;;;20.70;65.40;;;;;;5047032;28;20037;-73
2021/06/10 07:32:55;;;;;;;4.63;3.63;;;20.80;65.40;;;;;;5044861;28;20025;-72
2021/06/10 07:35:21;;;;;;;5.93;3.45;;;20.80;65.50;;;;;;5046509;28;20035;-74
2021/06/10 07:37:49;;;;;;;6.88;3.05;;;20.80;65.10;;;;;;5035611;28;20021;-74
2021/06/10 07:40:16;;;;;;;6.70;3.40;;;20.80;64.90;;;;;;5051068;28;20021;-74
2021/06/10 07:42:41;;;;;;;4.80;3.08;;;20.80;64.60;;;;;;5028068;28;20328;-71
2021/06/10 07:45:08;;;;;;;8.43;3.22;;;20.90;64.40;;;;;;5051680;28;20027;-73
2021/06/10 07:47:34;;;;;;;7.60;3.13;;;20.90;64.20;;;;;;5052376;28;20108;-70
2021/06/10 07:50:01;;;;;;;4.55;2.95;;;21.00;64.10;;;;;;5057170;28;20143;-72
2021/06/10 07:52:27;;;;;;;5.85;3.13;;;21.00;64.10;;;;;;5054661;28;20032;-72
2021/06/10 07:54:53;;;;;;;5.25;3.10;;;21.10;64.30;;;;;;5054454;28;20048;-71
2021/06/10 07:57:19;;;;;;;5.95;3.83;;;21.20;64.50;;;;;;5071623;28;20112;-72
2021/06/10 07:59:46;;;;;;;6.25;3.92;;;21.20;64.50;;;;;;5056884;28;20432;-73
2021/06/10 08:02:12;;;;;;;8.05;3.72;;;21.20;63.40;;;;;;5054519;28;20074;-72
2021/06/10 08:04:38;;;;;;;7.90;4.18;;;21.20;63.00;;;;;;5049518;28;20040;-72
2021/06/10 08:07:04;;;;;;;7.95;5.35;;;21.30;62.80;;;;;;5053516;28;20026;-72
2021/06/10 08:09:32;;;;;;;7.30;4.70;;;21.30;62.40;;;;;;5055163;28;20530;-72
2021/06/10 08:11:59;;;;;;;7.25;5.35;;;21.30;61.50;;;;;;5057735;28;20105;-72
2021/06/10 08:14:25;;;;;;;8.30;3.88;;;21.40;59.60;;;;;;5058175;28;21420;-73
2021/06/10 08:16:51;;;;;;;5.63;4.03;;;21.40;60.40;;;;;;5057101;28;20033;-73
2021/06/10 08:19:17;;;;;;;12.68;3.78;;;21.50;60.70;;;;;;5061984;28;20029;-73
2021/06/10 08:21:43;;;;;;;5.28;2.88;;;21.50;60.80;;;;;;5054530;28;20028;-72
2021/06/10 08:24:11;;;;;;;8.52;5.82;;;21.60;60.80;;;;;;5055152;28;20576;-72
2021/06/10 08:26:36;;;;;;;6.70;4.47;;;21.60;60.20;;;;;;5058089;28;20037;-72
2021/06/10 08:29:02;;;;;;;5.80;4.20;;;21.60;60.30;;;;;;5050150;28;20039;-72
2021/06/10 08:31:28;;;;;;;7.25;5.72;;;21.60;60.90;;;;;;5052318;28;20031;-73
2021/06/10 08:33:54;;;;;;;11.77;5.97;;;21.70;60.40;;;;;;5054218;28;20025;-71
2021/06/10 08:36:21;;;;;;;6.00;4.55;;;21.80;60.70;;;;;;5045166;28;20043;-73
2021/06/10 08:38:48;;;;;;;12.45;6.10;;;21.80;60.90;;;;;;5056795;28;20078;-72
2021/06/10 08:41:14;;;;;;;5.65;3.58;;;21.90;60.10;;;;;;5063462;28;20041;-73
2021/06/10 08:43:41;;;;;;;6.03;4.40;;;21.90;60.30;;;;;;5057350;28;20265;-72
2021/06/10 08:46:09;;;;;;;8.25;5.90;;;22.00;60.50;;;;;;5050705;28;20398;-72
2021/06/10 08:48:41;;;;;;;8.75;6.85;;;22.00;60.30;;;;;;5052254;28;20082;-72
2021/06/10 08:51:07;;;;;;;;;;;22.00;59.50;;;;;;5054911;28;20073;-72
2021/06/10 08:53:33;;;;;;;9.55;6.55;;;22.10;59.70;;;;;;5052427;28;19908;-73
2021/06/10 08:55:59;;;;;;;8.93;5.25;;;22.10;60.50;;;;;;5054802;28;20120;-73
2021/06/10 08:58:27;;;;;;;9.25;6.72;;;22.10;60.70;;;;;;5059094;28;20040;-72
2021/06/10 09:00:55;;;;;;;7.55;5.20;;;22.20;60.60;;;;;;5058829;28;20036;-75
2021/06/10 09:03:29;;;;;;;10.05;7.93;;;22.20;60.60;;;;;;5052066;28;20025;-73
2021/06/10 09:06:21;;;;;;;11.45;7.55;;;22.30;61.00;;;;;;5050513;28;20029;-72
2021/06/10 09:08:49;;;;;;;8.07;6.45;;;22.30;61.20;;;;;;5058317;28;20043;-72
2021/06/10 09:11:22;;;;;;;11.00;7.28;;;22.40;61.30;;;;;;5058361;28;20089;-73
2021/06/10 09:13:51;;;;;;;10.50;8.50;;;22.40;61.00;;;;;;5059501;28;20104;-73
2021/06/10 09:16:18;;;;;;;10.35;7.25;;;22.40;61.00;;;;;;5058925;28;20033;-72
2021/06/10 09:18:56;;;;;;;7.85;5.80;;;22.50;61.20;;;;;;5052411;28;20020;-73
2021/06/10 09:21:58;;;;;;;6.68;5.78;;;22.60;61.60;;;;;;5054433;28;20043;-72
2021/06/10 09:24:35;;;;;;;7.63;5.82;;;22.70;61.20;;;;;;5040351;28;20048;-72
2021/06/10 09:27:11;;;;;;;7.68;6.35;;;22.80;61.20;;;;;;5058836;28;20554;-72
2021/06/10 09:29:43;;;;;;;11.20;6.93;;;22.80;61.10;;;;;;5058795;28;20028;-73
2021/06/10 09:32:10;;;;;;;12.50;10.43;;;22.80;60.80;;;;;;5056712;28;20564;-72
2021/06/10 09:34:47;;;;;;;6.03;5.32;;;22.80;59.70;;;;;;5055920;28;20025;-72
2021/06/10 09:37:14;;;;;;;13.80;9.82;;;22.80;60.40;;;;;;5060086;28;20025;-73
2021/06/10 09:39:48;;;;;;;11.80;8.70;;;22.80;61.20;;;;;;5059171;28;20075;-73
2021/06/10 09:42:14;;;;;;;11.40;8.68;;;22.80;61.50;;;;;;5057869;28;20032;-74
2021/06/10 09:44:42;;;;;;;9.15;7.18;;;22.80;61.30;;;;;;5057292;28;20108;-73
2021/06/10 09:47:08;;;;;;;7.35;6.07;;;22.80;61.60;;;;;;5058259;28;20036;-73
2021/06/10 09:49:34;;;;;;;10.73;7.68;;;22.70;61.40;;;;;;5049347;28;20120;-73
2021/06/10 09:52:02;;;;;;;11.73;8.27;;;22.90;61.10;;;;;;5055279;28;20345;-73
2021/06/10 09:54:52;;;;;;;13.20;8.65;;;22.90;59.80;;;;;;5056227;28;20031;-73
2021/06/10 09:57:19;;;;;;;10.20;7.50;;;23.00;60.10;;;;;;5054243;28;20068;-71
2021/06/10 09:59:55;;;;;;;8.55;6.95;;;23.00;60.60;;;;;;5047256;28;20029;-72
2021/06/10 10:02:26;;;;;;;13.57;8.80;;;23.00;61.10;;;;;;5049066;28;20558;-72
2021/06/10 10:05:23;;;;;;;8.98;7.43;;;23.10;60.10;;;;;;5052779;28;20043;-73
2021/06/10 10:07:50;;;;;;;8.95;7.85;;;23.10;60.20;;;;;;5046054;28;20049;-72
2021/06/10 10:10:16;;;;;;;6.47;5.72;;;23.10;60.10;;;;;;5049475;28;20045;-72
2021/06/10 10:12:44;;;;;;;10.50;9.07;;;23.20;60.40;;;;;;5051430;28;20462;-72
2021/06/10 10:15:12;;;;;;;9.60;7.28;;;23.30;59.30;;;;;;5044530;28;20032;-71
2021/06/10 10:17:37;;;;;;;6.25;5.35;;;23.30;60.20;;;;;;5041458;28;20032;-72
2021/06/10 10:20:06;;;;;;;9.02;6.85;;;23.40;60.40;;;;;;5039301;28;20032;-71
2021/06/10 10:22:34;;;;;;;9.57;6.22;;;23.50;60.60;;;;;;5042550;28;20028;-71
2021/06/10 10:25:00;;;;;;;14.32;6.35;;;23.40;60.40;;;;;;5054560;28;20029;-71
2021/06/10 10:27:26;;;;;;;8.38;6.32;;;23.30;60.60;;;;;;5056126;28;20509;-71
2021/06/10 10:29:54;;;;;;;6.95;6.10;;;23.30;60.20;;;;;;5056838;28;20021;-73
2021/06/10 10:32:25;;;;;;;7.60;6.22;;;23.30;61.20;;;;;;5054029;28;20065;-72
2021/06/10 10:34:52;;;;;;;8.02;6.65;;;23.40;61.80;;;;;;5053865;28;20056;-71
2021/06/10 10:37:23;;;;;;;9.38;7.25;;;23.40;61.30;;;;;;5054660;28;20033;-70
2021/06/10 10:39:50;;;;;;;6.13;5.40;;;23.40;61.50;;;;;;5057511;28;20032;-70
2021/06/10 10:42:45;;;;;;;9.27;7.82;;;23.40;61.40;;;;;;5051575;28;20032;-70
2021/06/10 10:45:11;;;;;;;7.57;6.68;;;23.50;60.90;;;;;;5045876;28;20049;-70
2021/06/10 10:48:10;;;;;;;9.85;7.80;;;23.50;60.80;;;;;;5051718;28;20062;-70
2021/06/10 10:50:38;;;;;;;11.15;9.00;;;23.60;60.30;;;;;;5063293;28;20044;-71
2021/06/10 10:53:18;;;;;;;10.82;9.20;;;23.60;59.70;;;;;;5049506;28;20383;-72
2021/06/10 10:55:44;;;;;;;13.13;9.25;;;23.70;59.60;;;;;;5049519;28;20037;-70
2021/06/10 10:58:20;;;;;;;9.95;7.57;;;23.70;59.90;;;;;;5048537;28;20025;-72
2021/06/10 11:00:47;;;;;;;10.80;6.95;;;23.90;59.40;;;;;;5050209;28;20029;-74
2021/06/10 11:03:23;;;;;;;9.35;6.53;;;23.90;59.90;;;;;;5049388;28;20108;-72
2021/06/10 11:05:48;;;;;;;10.88;7.50;;;23.90;58.60;;;;;;5048822;28;20036;-73
2021/06/10 11:08:14;;;;;;;8.43;6.95;;;23.90;57.30;;;;;;5043381;28;20025;-74
2021/06/10 11:10:49;;;;;;;9.98;7.18;;;23.90;57.80;;;;;;5034268;28;20043;-74
2021/06/10 11:13:21;;;;;;;12.10;7.75;;;24.00;57.20;;;;;;5050696;28;20359;-73
2021/06/10 11:15:52;;;;;;;9.35;7.53;;;24.10;56.60;;;;;;5047367;28;20025;-73
2021/06/10 11:18:39;;;;;;;7.35;6.60;;;24.10;56.60;;;;;;5054415;28;20110;-73
2021/06/10 11:21:06;;;;;;;10.60;7.95;;;24.10;57.10;;;;;;5052823;28;20483;-75
2021/06/10 11:23:31;;;;;;;8.82;6.28;;;24.10;56.50;;;;;;5054349;28;20029;-74
2021/06/10 11:25:59;;;;;;;7.20;6.18;;;24.10;56.50;;;;;;5058745;28;20055;-71
2021/06/10 11:28:35;;;;;;;6.03;4.80;;;24.20;57.70;;;;;;5053483;28;20100;-70
2021/06/10 11:31:20;;;;;;;6.15;4.68;;;24.40;58.60;;;;;;5053080;28;20033;-75
2021/06/10 11:33:48;;;;;;;7.47;4.22;;;24.60;58.10;;;;;;5056322;28;20064;-74
2021/06/10 11:36:15;;;;;;;8.93;7.22;;;25.00;57.70;;;;;;5054701;28;20064;-69
2021/06/10 11:38:43;;;;;;;5.30;4.10;;;25.40;54.90;;;;;;5046386;28;20614;-72
2021/06/10 11:41:10;;;;;;;5.63;5.03;;;25.80;55.80;;;;;;5055823;28;20028;-73
2021/06/10 11:43:41;;;;;;;6.13;4.82;;;26.20;55.40;;;;;;5051388;28;20028;-72
2021/06/10 11:46:12;;;;;;;6.65;5.25;;;26.90;52.80;;;;;;5053434;28;20025;-72
2021/06/10 11:48:41;;;;;;;5.93;4.13;;;28.00;50.30;;;;;;5050134;28;20029;-72
2021/06/10 11:51:28;;;;;;;5.18;4.68;;;29.20;48.80;;;;;;5055347;28;20063;-72
2021/06/10 11:54:11;;;;;;;6.93;5.35;;;30.20;46.70;;;;;;5049836;28;20032;-70
2021/06/10 11:56:38;;;;;;;8.90;5.07;;;31.50;42.80;;;;;;5056307;28;20032;-71
2021/06/10 11:59:19;;;;;;;7.25;4.72;;;32.10;41.50;;;;;;5053283;28;20029;-71
2021/06/10 12:02:07;;;;;;;7.57;5.13;;;32.50;39.60;;;;;;5050114;28;20017;-70
2021/06/10 12:04:36;;;;;;;6.00;4.57;;;32.90;39.30;;;;;;5055516;28;20033;-70
2021/06/10 12:07:14;;;;;;;5.88;5.28;;;33.30;39.60;;;;;;5055645;28;20238;-70
2021/06/10 12:10:01;;;;;;;8.63;4.80;;;33.60;38.10;;;;;;5051926;28;20029;-70
2021/06/10 12:12:43;;;;;;;6.13;4.60;;;33.70;36.80;;;;;;5054154;28;20099;-70
2021/06/10 12:15:26;;;;;;;6.38;4.53;;;33.70;37.80;;;;;;5055268;28;20552;-71
2021/06/10 12:17:54;;;;;;;5.05;3.90;;;33.50;37.70;;;;;;5053345;28;20036;-71
2021/06/10 12:20:25;;;;;;;5.35;4.25;;;33.50;37.80;;;;;;5054324;28;20112;-70
2021/06/10 12:22:51;;;;;;;4.60;4.20;;;33.40;38.70;;;;;;5058814;28;20485;-71
2021/06/10 12:25:18;;;;;;;5.65;5.03;;;33.10;38.80;;;;;;5055017;28;20057;-71
2021/06/10 12:27:45;;;;;;;5.65;4.63;;;32.90;38.80;;;;;;5056323;28;20017;-70
2021/06/10 12:30:24;;;;;;;6.35;5.30;;;32.80;37.30;;;;;;5049104;28;20032;-71
2021/06/10 12:32:50;;;;;;;7.10;5.70;;;32.70;37.60;;;;;;5051177;28;20090;-71
2021/06/10 12:35:21;;;;;;;5.72;5.13;;;32.60;37.40;;;;;;5060656;28;20029;-71
2021/06/10 12:37:53;;;;;;;7.72;5.13;;;32.60;37.80;;;;;;5059125;28;20028;-71
2021/06/10 12:40:19;;;;;;;6.60;5.32;;;32.80;38.10;;;;;;5061270;28;20082;-71
2021/06/10 12:43:11;;;;;;;8.00;6.22;;;33.10;36.80;;;;;;5059947;28;20021;-72
2021/06/10 12:45:38;;;;;;;5.93;5.18;;;33.50;36.00;;;;;;5057771;28;20414;-72
2021/06/10 12:48:26;;;;;;;5.82;4.93;;;33.50;37.00;;;;;;5056567;28;20028;-72
2021/06/10 12:51:15;;;;;;;6.28;5.65;;;33.70;36.60;;;;;;5060109;28;20040;-72
2021/06/10 12:54:05;;;;;;;5.45;4.95;;;33.80;36.00;;;;;;5062567;28;20492;-72